createdAt,value
2019-04-04T00:01:57.179Z,40.30
2019-04-04T00:04:26.739Z,38.27
2019-04-04T00:06:58.133Z,36.47
2019-04-04T00:09:31.194Z,34.20
2019-04-04T00:12:02.553Z,36.53
2019-04-04T00:14:33.899Z,38.60
2019-04-04T00:17:03.645Z,39.03
2019-04-04T00:19:35.993Z,36.07
2019-04-04T00:22:05.587Z,37.57
2019-04-04T00:24:39.344Z,32.93
2019-04-04T00:27:08.189Z,40.83
2019-04-04T00:29:37.740Z,39.33
2019-04-04T00:32:07.413Z,41.67
2019-04-04T00:34:40.022Z,42.60
2019-04-04T00:37:09.931Z,36.10
2019-04-04T00:39:40.420Z,36.63
2019-04-04T00:42:10.379Z,37.53
2019-04-04T00:44:39.930Z,38.37
2019-04-04T00:47:09.594Z,38.03
2019-04-04T00:49:39.088Z,34.70
2019-04-04T00:52:10.303Z,36.83
2019-04-04T00:54:40.151Z,35.30
2019-04-04T00:57:09.868Z,39.63
2019-04-04T00:59:39.384Z,35.57
2019-04-04T01:02:09.282Z,31.93
2019-04-04T01:04:38.563Z,33.80
2019-04-04T01:07:11.064Z,34.60
2019-04-04T01:09:43.071Z,38.30
2019-04-04T01:12:13.053Z,36.27
2019-04-04T01:14:42.523Z,40.87
2019-04-04T01:17:12.067Z,34.97
2019-04-04T01:19:41.818Z,40.60
2019-04-04T01:22:11.466Z,40.33
2019-04-04T01:24:40.940Z,37.50
2019-04-04T01:27:10.522Z,36.20
2019-04-04T01:29:40.863Z,36.20
2019-04-04T01:32:11.120Z,36.10
2019-04-04T01:34:40.811Z,34.47
2019-04-04T01:37:10.758Z,36.00
2019-04-04T01:39:40.230Z,33.87
2019-04-04T01:42:09.979Z,40.07
2019-04-04T01:44:40.151Z,40.47
2019-04-04T01:47:10.801Z,39.13
2019-04-04T01:49:40.512Z,34.77
2019-04-04T01:52:09.996Z,44.57
2019-04-04T01:54:42.627Z,42.00
2019-04-04T01:57:12.167Z,44.03
2019-04-04T01:59:41.974Z,43.73
2019-04-04T02:02:12.950Z,38.50
2019-04-04T02:04:42.496Z,38.33
2019-04-04T02:07:12.181Z,37.07
2019-04-04T02:09:49.080Z,31.10
2019-04-04T02:12:18.788Z,35.73
2019-04-04T02:14:48.498Z,34.77
2019-04-04T02:17:18.195Z,35.50
2019-04-04T02:19:48.125Z,33.33
2019-04-04T02:22:17.814Z,35.07
2019-04-04T02:24:47.750Z,37.13
2019-04-04T02:27:17.439Z,37.43
2019-04-04T02:29:46.935Z,34.63
2019-04-04T02:32:18.294Z,36.47
2019-04-04T02:34:48.229Z,36.53
2019-04-04T02:37:21.362Z,34.93
2019-04-04T02:39:51.341Z,38.27
2019-04-04T02:42:22.227Z,37.60
2019-04-04T02:44:54.665Z,36.37
2019-04-04T02:47:24.774Z,38.60
2019-04-04T02:49:54.480Z,34.13
2019-04-04T02:52:26.209Z,38.53
2019-04-04T02:54:58.223Z,37.80
2019-04-04T02:57:27.067Z,34.80
2019-04-04T02:59:56.802Z,36.07
2019-04-04T03:02:26.496Z,33.97
2019-04-04T03:04:58.734Z,36.90
2019-04-04T03:07:30.941Z,35.07
2019-04-04T03:09:59.291Z,34.73
2019-04-04T03:12:29.255Z,41.97
2019-04-04T03:14:58.804Z,37.40
2019-04-04T03:17:33.905Z,39.43
2019-04-04T03:20:03.321Z,34.80
2019-04-04T03:22:34.645Z,37.13
2019-04-04T03:25:04.162Z,34.63
2019-04-04T03:27:33.826Z,34.00
2019-04-04T03:30:03.354Z,42.70
2019-04-04T03:32:33.033Z,39.20
2019-04-04T03:35:02.952Z,40.10
2019-04-04T03:37:32.697Z,36.77
2019-04-04T03:40:02.405Z,39.70
2019-04-04T03:42:34.189Z,34.70
2019-04-04T03:45:03.858Z,37.20
2019-04-04T03:47:33.376Z,35.40
2019-04-04T03:50:03.069Z,42.30
2019-04-04T03:52:33.005Z,36.77
2019-04-04T03:55:02.770Z,34.83
2019-04-04T03:57:32.244Z,40.23
2019-04-04T04:00:05.903Z,35.40
2019-04-04T04:02:34.480Z,44.37
2019-04-04T04:05:04.224Z,41.73
2019-04-04T04:07:35.154Z,45.70
2019-04-04T04:10:05.065Z,45.67
2019-04-04T04:12:34.792Z,33.70
2019-04-04T04:15:04.507Z,35.73
2019-04-04T04:17:36.194Z,32.97
2019-04-04T04:20:05.757Z,34.13
2019-04-04T04:22:37.319Z,34.13
2019-04-04T04:25:07.202Z,36.70
2019-04-04T04:27:37.130Z,46.80
2019-04-04T04:30:10.047Z,37.77
2019-04-04T04:32:39.845Z,49.07
2019-04-04T04:35:11.785Z,76.73
2019-04-04T04:37:41.719Z,40.07
2019-04-04T04:40:15.069Z,45.83
2019-04-04T04:42:46.251Z,40.23
2019-04-04T04:45:15.972Z,75.93
2019-04-04T04:47:45.894Z,38.67
2019-04-04T04:50:15.807Z,49.13
2019-04-04T04:52:47.358Z,57.30
2019-04-04T04:55:19.104Z,53.93
2019-04-04T04:57:48.651Z,39.30
2019-04-04T05:00:18.150Z,44.67
2019-04-04T05:02:49.044Z,37.17
2019-04-04T05:05:20.045Z,37.27
2019-04-04T05:07:49.888Z,38.40
2019-04-04T05:10:21.948Z,40.00
2019-04-04T05:12:53.031Z,37.70
2019-04-04T05:15:23.347Z,43.07
2019-04-04T05:17:53.052Z,35.90
2019-04-04T05:20:23.122Z,42.33
2019-04-04T05:22:53.889Z,36.87
2019-04-04T05:25:23.804Z,38.70
2019-04-04T05:27:55.305Z,35.70
2019-04-04T05:30:24.698Z,43.20
2019-04-04T05:32:56.552Z,34.33
2019-04-04T05:35:26.172Z,42.03
2019-04-04T05:37:55.843Z,36.93
2019-04-04T05:40:26.436Z,35.40
2019-04-04T05:42:57.122Z,33.57
2019-04-04T05:45:26.631Z,39.83
2019-04-04T05:47:59.875Z,28.40
2019-04-04T05:50:29.385Z,29.70
2019-04-04T05:52:59.059Z,32.20
2019-04-04T05:55:28.538Z,34.43
2019-04-04T05:57:58.829Z,36.30
2019-04-04T06:00:33.477Z,30.00
2019-04-04T06:03:03.025Z,32.23
2019-04-04T06:05:35.341Z,33.30
2019-04-04T06:08:07.862Z,31.27
2019-04-04T06:10:36.647Z,30.13
2019-04-04T06:13:06.758Z,29.30
2019-04-04T06:15:36.443Z,31.33
2019-04-04T06:18:10.950Z,30.60
2019-04-04T06:20:38.747Z,29.60
2019-04-04T06:23:08.446Z,29.47
2019-04-04T06:25:37.443Z,32.23
2019-04-04T06:28:11.620Z,27.27
2019-04-04T06:30:43.447Z,26.40
2019-04-04T06:33:11.587Z,27.97
2019-04-04T06:35:41.310Z,29.80
2019-04-04T06:38:13.581Z,37.30
2019-04-04T06:40:43.402Z,63.17
2019-04-04T06:43:15.150Z,53.87
2019-04-04T06:45:46.537Z,30.63
2019-04-04T06:48:16.183Z,29.83
2019-04-04T06:50:45.903Z,25.77
2019-04-04T06:53:18.030Z,29.87
2019-04-04T06:55:49.039Z,29.57
2019-04-04T06:58:18.946Z,22.03
2019-04-04T07:00:50.295Z,20.90
2019-04-04T07:03:20.000Z,26.60
2019-04-04T07:05:49.687Z,23.00
2019-04-04T07:08:19.623Z,25.93
2019-04-04T07:10:57.736Z,22.33
2019-04-04T07:13:22.420Z,23.67
2019-04-04T07:16:06.064Z,20.33
2019-04-04T07:18:25.663Z,19.07
2019-04-04T07:20:59.798Z,23.03
2019-04-04T07:23:30.431Z,21.37
2019-04-04T07:26:00.495Z,18.67
2019-04-04T07:28:31.002Z,20.70
2019-04-04T07:31:01.778Z,18.67
2019-04-04T07:33:31.887Z,19.03
2019-04-04T07:36:01.405Z,21.40
2019-04-04T07:38:31.082Z,16.23
2019-04-04T07:41:02.252Z,18.50
2019-04-04T07:43:31.751Z,21.20
2019-04-04T07:46:15.630Z,17.33
2019-04-04T07:48:34.642Z,19.13
2019-04-04T07:51:04.163Z,17.73
2019-04-04T07:53:36.432Z,17.80
2019-04-04T07:56:10.183Z,19.83
2019-04-04T07:58:39.851Z,16.77
2019-04-04T08:01:09.544Z,22.67
2019-04-04T08:03:40.722Z,15.93
2019-04-04T08:06:11.641Z,19.53
2019-04-04T08:08:41.325Z,19.97
2019-04-04T08:11:13.337Z,19.93
2019-04-04T08:13:42.422Z,16.50
2019-04-04T08:16:20.328Z,16.33
2019-04-04T08:18:50.006Z,18.33
2019-04-04T08:21:19.745Z,14.73
2019-04-04T08:23:49.658Z,14.07
2019-04-04T08:26:21.821Z,18.30
2019-04-04T08:28:51.746Z,20.43
2019-04-04T08:31:21.041Z,13.10
2019-04-04T08:33:50.564Z,28.77
2019-04-04T08:36:20.259Z,15.93
2019-04-04T08:38:52.426Z,13.07
2019-04-04T08:41:23.343Z,21.20
2019-04-04T08:43:55.936Z,22.43
2019-04-04T08:46:25.481Z,16.27
2019-04-04T08:48:56.802Z,16.87
2019-04-04T08:51:30.977Z,14.83
2019-04-04T08:54:02.557Z,15.47
2019-04-04T08:56:34.381Z,16.30
2019-04-04T08:59:05.855Z,15.13
2019-04-04T09:01:35.582Z,15.10
2019-04-04T09:04:05.121Z,15.57
2019-04-04T09:06:35.008Z,21.30
2019-04-04T09:09:06.560Z,19.90
2019-04-04T09:11:36.120Z,18.30
2019-04-04T09:14:08.215Z,13.40
2019-04-04T09:16:43.266Z,12.77
2019-04-04T09:19:12.973Z,15.30
2019-04-04T09:21:44.132Z,16.60
2019-04-04T09:24:13.657Z,16.53
2019-04-04T09:26:45.358Z,17.63
2019-04-04T09:29:15.305Z,16.43
2019-04-04T09:31:44.827Z,19.30
2019-04-04T09:34:14.732Z,21.63
2019-04-04T09:36:44.423Z,18.37
2019-04-04T09:39:13.957Z,27.57
2019-04-04T09:41:43.641Z,16.27
2019-04-04T09:44:14.779Z,16.63
2019-04-04T09:46:44.369Z,14.40
2019-04-04T09:49:13.983Z,18.73
2019-04-04T09:51:44.518Z,15.67
2019-04-04T09:54:14.059Z,12.83
2019-04-04T09:56:45.606Z,13.13
2019-04-04T09:59:15.128Z,15.93
2019-04-04T10:01:48.144Z,15.20
2019-04-04T10:04:17.788Z,20.97
2019-04-04T10:06:47.492Z,18.57
2019-04-04T10:09:17.233Z,24.30
2019-04-04T10:11:48.754Z,18.63
2019-04-04T10:14:18.465Z,11.83
2019-04-04T10:16:48.025Z,17.60
2019-04-04T10:19:18.725Z,16.43
2019-04-04T10:21:49.659Z,11.27
2019-04-04T10:24:21.626Z,16.47
2019-04-04T10:26:51.317Z,13.33
2019-04-04T10:29:23.499Z,16.97
2019-04-04T10:31:53.193Z,16.20
2019-04-04T10:34:23.543Z,13.37
2019-04-04T10:36:53.277Z,17.07
2019-04-04T10:39:29.351Z,14.97
2019-04-04T10:41:59.022Z,17.37
2019-04-04T10:44:28.321Z,16.57
2019-04-04T10:46:58.988Z,17.40
2019-04-04T10:49:28.554Z,21.70
2019-04-04T10:52:00.279Z,20.70
2019-04-04T10:54:30.025Z,19.50
2019-04-04T10:56:59.718Z,18.83
2019-04-04T10:59:32.159Z,10.43
2019-04-04T11:02:02.229Z,21.43
2019-04-04T11:04:32.973Z,18.03
2019-04-04T11:07:02.673Z,17.67
2019-04-04T11:09:41.766Z,14.03
2019-04-04T11:12:04.767Z,13.23
2019-04-04T11:14:34.264Z,16.07
2019-04-04T11:17:05.193Z,10.70
2019-04-04T11:19:34.895Z,17.57
2019-04-04T11:22:04.327Z,14.80
2019-04-04T11:24:36.378Z,19.30
2019-04-04T11:27:06.282Z,15.93
2019-04-04T11:29:39.532Z,15.77
2019-04-04T11:32:09.440Z,17.83
2019-04-04T11:34:52.577Z,14.80
2019-04-04T11:37:17.267Z,20.80
2019-04-04T11:39:54.502Z,16.30
2019-04-04T11:42:18.989Z,14.37
2019-04-04T11:44:47.962Z,17.23
2019-04-04T11:47:17.625Z,15.17
2019-04-04T11:49:49.580Z,12.23
2019-04-04T11:52:18.514Z,13.70
2019-04-04T11:54:57.978Z,12.10
2019-04-04T11:57:27.004Z,13.07
2019-04-04T11:59:56.042Z,17.90
2019-04-04T12:02:28.132Z,12.17
2019-04-04T12:04:58.010Z,17.33
2019-04-04T12:07:27.848Z,14.37
2019-04-04T12:10:06.780Z,12.73
2019-04-04T12:12:28.706Z,10.10
2019-04-04T12:14:58.471Z,12.57
2019-04-04T12:17:28.138Z,14.47
2019-04-04T12:19:57.660Z,19.97
2019-04-04T12:22:29.415Z,18.37
2019-04-04T12:25:01.362Z,15.97
2019-04-04T12:27:33.742Z,14.37
2019-04-04T12:30:03.450Z,17.43
2019-04-04T12:32:35.041Z,12.47
2019-04-04T12:35:04.731Z,11.63
2019-04-04T12:37:34.420Z,13.70
2019-04-04T12:40:04.126Z,13.93
2019-04-04T12:42:35.991Z,11.27
2019-04-04T12:45:06.077Z,12.07
2019-04-04T12:47:35.727Z,18.60
2019-04-04T12:50:06.297Z,17.00
2019-04-04T12:52:36.997Z,14.20
2019-04-04T12:55:07.609Z,12.97
2019-04-04T12:57:42.919Z,8.93
2019-04-04T13:00:13.077Z,15.23
2019-04-04T13:02:42.384Z,12.07
2019-04-04T13:05:19.087Z,10.20
2019-04-04T13:07:48.749Z,12.40
2019-04-04T13:10:18.684Z,8.63
2019-04-04T13:12:55.579Z,9.40
2019-04-04T13:15:27.172Z,12.77
2019-04-04T13:17:56.663Z,10.73
2019-04-04T13:20:26.758Z,8.97
2019-04-04T13:22:56.485Z,8.20
2019-04-04T13:25:28.508Z,11.63
2019-04-04T13:28:01.262Z,16.53
2019-04-04T13:30:30.924Z,11.97
2019-04-04T13:33:00.835Z,12.63
2019-04-04T13:35:30.407Z,13.37
2019-04-04T13:38:01.640Z,10.27
2019-04-04T13:40:31.179Z,14.23
2019-04-04T13:43:01.113Z,9.13
2019-04-04T13:45:30.600Z,8.20
2019-04-04T13:48:05.555Z,10.93
2019-04-04T13:50:38.191Z,9.17
2019-04-04T13:53:07.796Z,11.73
2019-04-04T13:55:39.323Z,6.97
2019-04-04T13:58:08.563Z,10.30
2019-04-04T14:00:38.717Z,13.47
2019-04-04T14:03:08.427Z,12.43
2019-04-04T14:05:38.334Z,11.27
2019-04-04T14:08:08.282Z,10.17
2019-04-04T14:10:41.062Z,9.60
2019-04-04T14:13:14.501Z,9.30
2019-04-04T14:15:46.401Z,10.33
2019-04-04T14:18:38.183Z,7.60
2019-04-04T14:21:03.701Z,12.90
2019-04-04T14:23:30.239Z,9.47
2019-04-04T14:26:01.600Z,8.93
2019-04-04T14:28:31.126Z,12.00
2019-04-04T14:31:00.618Z,9.43
2019-04-04T14:33:30.139Z,9.13
2019-04-04T14:36:00.762Z,8.10
2019-04-04T14:38:30.445Z,12.03
2019-04-04T14:41:10.694Z,10.87
2019-04-04T14:43:35.618Z,10.97
2019-04-04T14:46:07.707Z,12.70
2019-04-04T14:48:42.193Z,7.83
2019-04-04T14:51:11.851Z,9.33
2019-04-04T14:53:41.959Z,11.23
2019-04-04T14:56:12.119Z,10.10
2019-04-04T14:58:41.731Z,8.33
2019-04-04T15:01:14.296Z,8.40
2019-04-04T15:03:44.484Z,9.20
2019-04-04T15:06:14.190Z,13.03
2019-04-04T15:08:44.891Z,9.47
2019-04-04T15:11:23.907Z,11.37
2019-04-04T15:13:48.875Z,8.33
2019-04-04T15:16:18.365Z,10.83
2019-04-04T15:18:48.648Z,10.73
2019-04-04T15:21:20.517Z,11.47
2019-04-04T15:23:50.124Z,12.43
2019-04-04T15:26:21.927Z,12.23
2019-04-04T15:28:52.593Z,12.47
2019-04-04T15:31:25.631Z,14.20
2019-04-04T15:33:55.339Z,7.67
2019-04-04T15:36:26.521Z,11.33
2019-04-04T15:38:58.710Z,9.23
2019-04-04T15:41:36.722Z,14.53
2019-04-04T15:43:59.511Z,12.67
2019-04-04T15:46:29.207Z,17.87
2019-04-04T15:48:58.717Z,10.13
2019-04-04T15:51:28.236Z,10.27
2019-04-04T15:54:00.119Z,18.00
2019-04-04T15:56:29.541Z,10.53
2019-04-04T15:58:59.599Z,65.67
2019-04-04T16:01:29.298Z,46.30
2019-04-04T16:03:58.843Z,13.77
2019-04-04T16:06:28.311Z,13.47
2019-04-04T16:08:59.663Z,10.83
2019-04-04T16:11:29.179Z,13.53
2019-04-04T16:14:02.597Z,14.37
2019-04-04T16:16:32.722Z,11.13
2019-04-04T16:19:02.434Z,12.57
2019-04-04T16:21:34.710Z,9.03
2019-04-04T16:24:04.918Z,11.63
2019-04-04T16:26:35.442Z,10.00
2019-04-04T16:29:24.404Z,8.73
2019-04-04T16:31:53.510Z,10.77
2019-04-04T16:34:23.413Z,11.43
2019-04-04T16:36:52.965Z,13.60
2019-04-04T16:39:22.598Z,17.13
2019-04-04T16:42:01.535Z,17.03
2019-04-04T16:44:24.499Z,13.03
2019-04-04T16:46:54.429Z,14.50
2019-04-04T16:49:26.170Z,12.40
2019-04-04T16:51:57.960Z,15.57
2019-04-04T16:54:27.469Z,23.33
2019-04-04T16:56:58.567Z,24.10
2019-04-04T16:59:28.199Z,16.07
2019-04-04T17:01:59.357Z,9.57
2019-04-04T17:04:29.163Z,14.93
2019-04-04T17:06:59.934Z,13.30
2019-04-04T17:09:29.601Z,15.00
2019-04-04T17:11:59.281Z,13.63
2019-04-04T17:14:30.014Z,17.60
2019-04-04T17:16:59.765Z,17.80
2019-04-04T17:19:29.448Z,22.17
2019-04-04T17:21:59.018Z,15.50
2019-04-04T17:24:28.690Z,23.93
2019-04-04T17:27:00.922Z,26.53
2019-04-04T17:29:30.394Z,22.63
2019-04-04T17:31:59.852Z,27.27
2019-04-04T17:34:28.924Z,45.77
2019-04-04T17:36:58.831Z,35.30
2019-04-04T17:39:31.877Z,40.60
2019-04-04T17:42:01.549Z,23.67
2019-04-04T17:44:31.082Z,27.27
2019-04-04T17:47:03.630Z,39.67
2019-04-04T17:49:35.588Z,70.70
2019-04-04T17:52:07.897Z,128.90
2019-04-04T17:54:37.317Z,38.87
2019-04-04T17:57:07.379Z,52.03
2019-04-04T17:59:43.118Z,39.77
2019-04-04T18:02:08.460Z,25.43
2019-04-04T18:04:47.759Z,27.17
2019-04-04T18:07:11.565Z,18.93
2019-04-04T18:09:45.504Z,17.10
2019-04-04T18:12:16.754Z,15.73
2019-04-04T18:14:46.437Z,16.87
2019-04-04T18:17:15.686Z,17.97
2019-04-04T18:19:45.291Z,22.47
2019-04-04T18:22:14.949Z,25.13
2019-04-04T18:24:44.669Z,32.90
2019-04-04T18:27:14.988Z,25.37
2019-04-04T18:29:47.343Z,29.90
2019-04-04T18:32:17.276Z,19.77
2019-04-04T18:34:47.469Z,14.17
2019-04-04T18:37:17.499Z,13.93
2019-04-04T18:39:47.485Z,33.87
2019-04-04T18:42:17.227Z,40.63
2019-04-04T18:44:51.757Z,29.87
2019-04-04T18:47:21.433Z,21.20
2019-04-04T18:49:51.372Z,32.47
2019-04-04T18:52:21.743Z,17.47
2019-04-04T18:54:51.642Z,19.33
2019-04-04T18:57:21.316Z,20.40
2019-04-04T18:59:50.704Z,22.80
2019-04-04T19:08:00.962Z,66.93
2019-04-04T19:10:32.089Z,96.40
2019-04-04T19:13:05.582Z,54.70
2019-04-04T19:15:33.137Z,70.67
2019-04-04T19:18:04.297Z,111.00
2019-04-04T19:20:34.627Z,45.57
2019-04-04T19:23:04.340Z,47.63
2019-04-04T19:25:34.039Z,68.53
2019-04-04T19:28:03.971Z,58.30
2019-04-04T19:30:33.679Z,22.43
2019-04-04T19:33:05.028Z,20.90
2019-04-04T19:35:37.941Z,22.60
2019-04-04T19:38:08.333Z,20.57
2019-04-04T19:40:38.473Z,14.40
2019-04-04T19:43:18.055Z,17.83
2019-04-04T19:45:41.371Z,16.80
2019-04-04T19:48:11.247Z,17.63
2019-04-04T19:50:41.592Z,20.53
2019-04-04T19:53:11.279Z,25.63
2019-04-04T19:55:42.503Z,28.33
2019-04-04T19:58:15.721Z,32.57
2019-04-04T20:00:46.171Z,31.43
2019-04-04T20:03:16.286Z,30.90
2019-04-04T20:05:46.227Z,39.67
2019-04-04T20:08:16.503Z,57.73
2019-04-04T20:10:46.646Z,51.93
2019-04-04T20:13:16.962Z,53.40
2019-04-04T20:15:47.100Z,41.30
2019-04-04T20:18:20.321Z,53.90
2019-04-04T20:20:49.978Z,45.70
2019-04-04T20:23:19.682Z,42.43
2019-04-04T20:25:49.436Z,58.87
2019-04-04T20:28:19.297Z,45.27
2019-04-04T20:30:48.997Z,96.17
2019-04-04T20:33:19.613Z,58.57
2019-04-04T20:35:50.617Z,47.90
2019-04-04T20:38:20.435Z,43.27
2019-04-04T20:40:49.802Z,35.83
2019-04-04T20:43:19.397Z,24.80
2019-04-04T20:45:48.938Z,24.03
2019-04-04T20:48:18.845Z,29.00
2019-04-04T20:50:53.943Z,33.87
2019-04-04T20:53:23.600Z,28.37
2019-04-04T20:55:53.212Z,31.80
2019-04-04T20:58:22.785Z,37.30
2019-04-04T21:00:51.807Z,21.87
2019-04-04T21:03:20.947Z,27.67
2019-04-04T21:05:50.284Z,34.47
2019-04-04T21:08:19.788Z,40.37
2019-04-04T21:10:49.693Z,47.27
2019-04-04T21:13:19.638Z,29.27
2019-04-04T21:15:49.753Z,26.07
2019-04-04T21:18:23.126Z,27.80
2019-04-04T21:20:52.736Z,22.17
2019-04-04T21:23:23.567Z,27.57
2019-04-04T21:25:53.270Z,27.90
2019-04-04T21:28:23.875Z,28.73
2019-04-04T21:30:53.329Z,24.70
2019-04-04T21:33:29.377Z,23.53
2019-04-04T21:36:00.311Z,22.20
2019-04-04T21:38:29.820Z,24.43
2019-04-04T21:40:59.765Z,25.10
2019-04-04T21:43:29.460Z,30.00
2019-04-04T21:45:59.182Z,29.23
2019-04-04T21:48:30.835Z,26.87
2019-04-04T21:51:00.443Z,25.97
2019-04-04T21:53:30.365Z,24.87
2019-04-04T21:55:59.925Z,24.40
2019-04-04T21:58:29.571Z,23.93
2019-04-04T22:00:59.420Z,27.77
2019-04-04T22:03:36.719Z,24.37
2019-04-04T22:06:06.065Z,23.47
2019-04-04T22:08:35.753Z,24.23
2019-04-04T22:11:05.331Z,23.37
2019-04-04T22:13:34.983Z,24.10
2019-04-04T22:16:04.700Z,22.87
2019-04-04T22:18:37.992Z,23.70
2019-04-04T22:21:09.323Z,21.37
2019-04-04T22:23:38.799Z,25.83
2019-04-04T22:26:12.664Z,23.60
2019-04-04T22:28:45.134Z,21.53
2019-04-04T22:31:17.154Z,22.13
2019-04-04T22:33:47.902Z,22.90
2019-04-04T22:36:19.427Z,25.27
2019-04-04T22:38:49.320Z,43.07
2019-04-04T22:41:19.432Z,24.97
2019-04-04T22:43:48.939Z,26.67
2019-04-04T22:46:18.638Z,27.00
2019-04-04T22:48:48.174Z,28.67
2019-04-04T22:51:20.330Z,29.47
2019-04-04T22:53:50.245Z,29.80
2019-04-04T22:56:19.222Z,25.33
2019-04-04T22:58:48.829Z,23.93
2019-04-04T23:01:18.765Z,25.50
2019-04-04T23:03:48.467Z,26.17
2019-04-04T23:06:18.351Z,25.70
2019-04-04T23:08:49.697Z,25.90
2019-04-04T23:11:19.025Z,22.93
2019-04-04T23:13:48.752Z,23.37
2019-04-04T23:16:18.424Z,25.57
2019-04-04T23:18:52.265Z,27.23
2019-04-04T23:21:21.984Z,27.77
2019-04-04T23:23:51.459Z,26.20
2019-04-04T23:26:22.394Z,26.70
2019-04-04T23:28:55.516Z,26.17
2019-04-04T23:31:25.115Z,29.10
2019-04-04T23:33:55.229Z,29.70
2019-04-04T23:36:34.369Z,31.07
2019-04-04T23:38:56.103Z,29.77
2019-04-04T23:41:25.785Z,25.20
2019-04-04T23:43:55.552Z,28.00
2019-04-04T23:46:25.195Z,25.57
2019-04-04T23:48:55.135Z,23.97
2019-04-04T23:51:24.470Z,26.00
2019-04-04T23:53:55.583Z,25.87
2019-04-04T23:56:28.151Z,25.50
2019-04-04T23:58:57.873Z,25.47
